Flight Track Log - Related Links

Times and Time Zones

All times are in EDT time to prevent confusion due to time zone crossing. See the UAL1202 flight status page for this flight to view local times or setup timezone preferences in your user account.

Time Position Orientation Groundspeed Altitude Reporting Facility
EDT Latitude Longitude Course Direction KTS MPH feet Rate Location/Type
Fri 02:09:02 PM 47.4228 -122.3119 217° Southwest 160 184 1,900  Level Seattle Center
Fri 02:09:40 PM 47.3911 -122.3117 180° South 172 198 3,100 2,164 Climbing Seattle Center
Fri 02:10:03 PM 47.3628 -122.3119 180° South 205 236 4,100 2,500 Climbing Seattle Center
Fri 02:11:00 PM 47.3001 -122.6447 270° West  Level FlightAware Approximate
Fri 02:11:04 PM 47.3136 -122.3683 218° Southwest 252 290 6,600  Level Seattle Center
Fri 02:12:00 PM 47.2900 -122.8167 254° West  Level FlightAware Approximate
Fri 02:12:05 PM 47.3067 -122.4706 264° West 251 289 9,800  Level Seattle Center
Fri 02:13:00 PM 47.2544 -122.9826 250° West  Level FlightAware Approximate
Fri 02:13:07 PM 47.3108 -122.5781 273° West 262 302 12,800  Level Seattle Center
Fri 02:14:00 PM 47.1698 -123.0983 217° Southwest  Level FlightAware Approximate
Fri 02:14:08 PM 47.3117 -122.6861 271° West 262 302 16,000  Level Seattle Center
Fri 02:15:09 PM 47.2586 -122.7556 222° Southwest 288 331 18,200 2,361 Climbing Seattle Center
Fri 02:16:10 PM 47.1822 -122.8461 219° Southwest 296 341 20,800 2,293 Climbing Seattle Center
Fri 02:17:12 PM 47.1153 -122.9225 218° Southwest 306 352 22,900 1,854 Climbing Seattle Center
Fri 02:18:13 PM 47.0161 -122.9367 186° South 356 410 24,600 1,328 Climbing Seattle Center
Fri 02:19:14 PM 46.9133 -122.9528 186° South 372 428 25,600 738 Climbing Seattle Center
Fri 02:20:15 PM 46.7981 -122.9725 187° South 421 484 26,100 927 Climbing Seattle Center
Fri 02:21:17 PM 46.6786 -122.9947 187° South 436 502 27,500 1,610 Climbing Seattle Center
Fri 02:22:18 PM 46.5319 -123.0197 187° South 446 513 29,400 1,475 Climbing Seattle Center
Fri 02:23:19 PM 46.4078 -123.0419 187° South 451 519 30,500 1,180 Climbing Seattle Center
Fri 02:24:20 PM 46.2814 -123.0594 185° South 459 528 31,800 1,328 Climbing Seattle Center
Fri 02:25:21 PM 46.1525 -123.0792 186° South 460 529 33,200 1,268 Climbing Seattle Center
Fri 02:26:23 PM 46.0256 -123.0992 186° South 459 528 34,400 1,073 Climbing Seattle Center
Fri 02:27:24 PM 45.8992 -123.1194 186° South 458 527 35,400 885 Climbing Seattle Center
Fri 02:28:25 PM 45.7717 -123.1378 186° South 459 528 36,200 683 Climbing Seattle Center
Fri 02:29:27 PM 45.6428 -123.1575 186° South 465 535 36,800 390 Climbing Seattle Center
Fri 02:30:28 PM 45.5125 -123.1783 186° South 470 541 37,000 98 Climbing Seattle Center
Fri 02:31:29 PM 45.3819 -123.1972 186° South 471 542 37,000  Level Seattle Center
Fri 02:32:30 PM 45.2500 -123.2158 186° South 471 542 37,000  Level Seattle Center
Fri 02:33:32 PM 45.1219 -123.2339 186° South 467 537 37,000  Level Seattle Center
Fri 02:34:33 PM 44.9633 -123.2578 186° South 470 541 37,000  Level Seattle Center
Fri 02:35:34 PM 44.8314 -123.2772 186° South 469 540 37,000  Level Seattle Center
Fri 02:36:35 PM 44.7008 -123.2967 186° South 467 537 37,000  Level Seattle Center
Fri 02:37:37 PM 44.5717 -123.3167 186° South 468 539 37,000  Level Seattle Center
Fri 02:38:38 PM 44.4392 -123.3233 182° South 492 566 37,000  Level Seattle Center
Fri 02:39:39 PM 44.3042 -123.3189 179° South 508 585 37,000  Level Seattle Center
Fri 02:40:41 PM 44.1703 -123.3161 179° South 487 560 37,000  Level Seattle Center
Fri 02:41:42 PM 44.0425 -123.3103 178° South 481 554 37,000  Level Seattle Center
Fri 02:42:43 PM 43.9086 -123.3044 178° South 481 554 37,000  Level Seattle Center
Fri 02:43:45 PM 43.7472 -123.2969 178° South 483 556 37,000  Level Seattle Center
Fri 02:44:46 PM 43.6128 -123.2936 179° South 483 556 37,000  Level Seattle Center
Fri 02:45:47 PM 43.4789 -123.2875 178° South 481 554 37,000  Level Seattle Center
Fri 02:46:49 PM 43.3450 -123.2819 178° South 482 555 37,000  Level Seattle Center
Fri 02:47:50 PM 43.2122 -123.2769 178° South 479 551 37,000  Level Seattle Center
Fri 02:48:51 PM 43.0792 -123.2714 178° South 477 549 37,000  Level Seattle Center
Fri 02:49:53 PM 42.9469 -123.2656 178° South 475 547 37,000  Level Seattle Center
Fri 02:50:54 PM 42.8139 -123.2594 178° South 477 549 37,000  Level Seattle Center
Fri 02:51:55 PM 42.6769 -123.2519 178° South 477 549 37,000 -49 Level Seattle Center
Fri 02:52:57 PM 42.5444 -123.2497 179° South 478 550 36,900  Descending Seattle Center
Fri 02:53:58 PM 42.3889 -123.2411 178° South 476 548 37,000 49 Climbing Seattle Center
Fri 02:54:59 PM 42.2553 -123.2372 179° South 480 552 37,000  Level Seattle Center
Fri 02:56:00 PM 42.1197 -123.2308 178° South 477 549 37,000  Level Seattle Center
Fri 02:57:02 PM 41.9864 -123.2250 178° South 479 551 37,000  Level Seattle Center
Fri 02:58:03 PM 41.8506 -123.2275 181° South 477 549 37,000  Level Seattle Center
Fri 02:59:04 PM 41.7200 -123.2189 177° South 471 542 37,000  Level Seattle Center
Fri 03:00:13 PM 41.5650 -123.2006 175° South 484 557 37,000  Level Oakland Center
Fri 03:01:14 PM 41.4322 -123.1878 176° South 480 552 37,000  Level Oakland Center
Fri 03:02:08 PM 41.3144 -123.1750 175° South 484 557 37,000  Level Seattle Center
Fri 03:03:10 PM 41.1808 -123.1617 176° South 482 555 37,000  Level Seattle Center
Fri 03:04:11 PM 41.0458 -123.1492 176° South 485 558 37,000  Level Seattle Center
Fri 03:05:12 PM 40.9097 -123.1350 176° South 486 559 37,000  Level Seattle Center
Fri 03:06:13 PM 40.7606 -123.1217 176° South 481 554 37,000  Level Seattle Center
Fri 03:07:15 PM 40.6275 -123.1072 175° South 481 554 37,000  Level Seattle Center
Fri 03:08:16 PM 40.4936 -123.0956 176° South 484 557 37,000  Level Seattle Center
Fri 03:09:17 PM 40.3603 -123.0825 176° South 483 556 37,000  Level Seattle Center
Fri 03:10:18 PM 40.2106 -123.0683 176° South 483 556 37,000  Level Seattle Center
Fri 03:11:20 PM 40.0769 -123.0553 176° South 482 555 37,000  Level Seattle Center
Fri 03:12:21 PM 39.9439 -123.0433 176° South 479 551 37,000 -246 Level Seattle Center
Fri 03:13:22 PM 39.8156 -123.0308 176° South 469 540 36,500 -738 Descending Seattle Center
Fri 03:14:23 PM 39.6875 -123.0186 176° South 463 533 35,500 -984 Descending Seattle Center
Fri 03:15:24 PM 39.5600 -123.0083 176° South 459 528 34,500 -933 Descending Seattle Center
Fri 03:16:38 PM 39.4119 -123.0358 188° South 430 495 33,400 -926 Descending Oakland Center
Fri 03:17:40 PM 39.2886 -123.0694 192° South 451 519 32,400 -927 Descending Oakland Center
Fri 03:18:41 PM 39.1644 -123.0600 177° South 450 518 31,500 -1,024 Descending Oakland Center
Fri 03:19:43 PM 39.0167 -123.0322 172° South 448 516 30,300 -1,268 Descending Oakland Center
Fri 03:20:44 PM 38.8953 -123.0125 173° South 443 510 28,900 -1,659 Descending Oakland Center
Fri 03:21:46 PM 38.7772 -122.9914 172° South 432 497 26,900 -1,902 Descending Oakland Center
Fri 03:22:47 PM 38.6622 -122.9717 172° South 421 484 25,000 -2,000 Descending Oakland Center
Fri 03:23:49 PM 38.5497 -122.9533 173° South 410 472 22,800 -2,000 Descending Oakland Center
Fri 03:24:50 PM 38.4417 -122.9347 172° South 401 461 20,900 -1,707 Descending Oakland Center
Fri 03:25:52 PM 38.3422 -122.9144 171° South 373 429 19,300 -1,756 Descending Oakland Center
Fri 03:26:53 PM 38.2267 -122.8950 172° South 356 410 17,300 -1,707 Descending Oakland Center
Fri 03:27:55 PM 38.1336 -122.8789 172° South 345 397 15,800 -1,452 Descending Oakland Center
Fri 03:28:57 PM 38.0514 -122.8386 159° South 330 380 14,300 -1,512 Descending Oakland Center
Fri 03:29:58 PM 37.9842 -122.7667 140° Southeast 320 368 12,700 -1,463 Descending Oakland Center
Fri 03:31:00 PM 37.9206 -122.6997 140° Southeast 306 352 11,300 -829 Descending Oakland Center
Fri 03:32:01 PM 37.8469 -122.6194 139° Southeast 301 346 11,000 -195 Descending Oakland Center
Fri 03:33:03 PM 37.7878 -122.5561 140° Southeast 286 329 10,900  Descending Oakland Center
Fri 03:34:06 PM 37.7333 -122.5000 141° Southeast 254 292 11,000 49 Climbing Northern Cal TRACON
Fri 03:35:06 PM 37.6833 -122.4333 133° Southeast 235 270 11,000  Level Northern Cal TRACON
Fri 03:36:06 PM 37.6333 -122.3833 142° Southeast 213 245 11,000 -293 Level Northern Cal TRACON
Fri 03:37:09 PM 37.5853 -122.3594 158° South 218 251 10,400 -864 Descending Oakland Center
Fri 03:38:11 PM 37.5283 -122.3300 158° South 222 255 9,200 -1,317 Descending Oakland Center
Fri 03:39:12 PM 37.4664 -122.2853 150° Southeast 233 268 7,700 -1,317 Descending Oakland Center
Fri 03:40:14 PM 37.4400 -122.2228 118° Southeast 210 242 6,500 -1,317 Descending Oakland Center
Fri 03:41:15 PM 37.4500 -122.1597 79° East 201 231 5,000 -1,220 Descending Oakland Center
Fri 03:42:17 PM 37.4914 -122.1333 27° Northeast 192 221 4,000 -976 Descending Oakland Center
Fri 03:43:18 PM 37.5356 -122.1808 320° Northwest 204 235 3,000 -976 Descending Oakland Center
Fri 03:44:20 PM 37.5619 -122.2408 299° West 197 227 2,000 -829 Descending Oakland Center
Fri 03:45:21 PM 37.5847 -122.2997 296° West 187 215 1,300 -689 Descending Oakland Center

Login

Don't have an account? Register now (free) for customized features, flight alerts, and more!